Slobodan Mitrovic

Olheiro - Partizan
13 Jan 2028
Quinta-feira
Processo

Personalidade

Adaptabilidade (17) Ambição (5) Controvérsia (1) Lealdade (5) Pressão (16) Profissionalismo (14) Espírito Esportivo (16) Temperamento (19)

Perfil

Estilo de Treinamento Democrático
Licença Nacional B
Determinação 5
Gestão de Pessoas 5
Motivação 12
Disciplina 11
Satisfação no Trabalho
100%
Fadiga
0%
Função Olheiro
Salário 16.5K p/s
Contrato 14.03.2028

Desempenho

Comportamento Bom
Eficácia do Treinamento
56%
Desenvolvimento do Jogador
70%
Prevenção de Lesões
40%
Implementação Tática
25%

Eventos Recentes

Negociação de contrato iniciada agora
Participou de uma reunião de recrutamento agora
Negociação de contrato iniciada agora
Negociação de contrato iniciada 7d atrás
Negociação de contrato iniciada 7d atrás
Negociação de contrato iniciada 7d atrás
Negociação de contrato iniciada 7d atrás
Negociação de contrato iniciada 7d atrás

Monitorando agora

141
Jogador Clube Status Habilidade Confiança Observado Última observação Último voto
Japhet Sery Larsen Philadelphia Union Ativo 138 / 133 40% 1 11.01.2028 -
Williams Manyama SuperSport United Perdido 127 / 110 40% 1 11.01.2028 -
Jonathan Bamba Chicago Fire Ativo 147 / 122 40% 1 31.12.2027 -
Andrés Gómez Vasco da Gama Ativo 141 / 134 40% 1 31.12.2027 -
Vasilije Novičić IMT Ativo 108 / 104 58% 1 14.06.2027 -
Ryoya Morishita Blackburn Rovers Ativo 118 / 117 40% 3 31.05.2027 -
Callum Brittain Middlesbrough Ativo 122 / 135 40% 3 31.05.2027 -
Saša Lukić Ipswich Town Ativo 135 / 141 40% 5 30.05.2027 -
Japhet Tanganga Sheffield United Ativo 140 / 137 40% 3 28.05.2027 -
Adam Randell Bristol City Ativo 130 / 126 40% 2 28.05.2027 -
Othmane Maamma Watford Ativo 133 / 129 40% 3 27.05.2027 -
Luke McNally Bristol City Ativo 129 / 135 40% 3 26.05.2027 -
Pelle Mattsson Norwich City Ativo 119 / 121 40% 1 26.05.2027 -
Radek Vítek Middlesbrough Ativo 145 / 143 40% 1 26.05.2027 -
Vladan Kovačević Norwich City Ativo 116 / 126 40% 1 26.05.2027 -
Josh Tymon Swansea City Ativo 130 / 117 40% 4 24.05.2027 -
Chris Mepham West Bromwich Albion Ativo 130 / 132 40% 2 24.05.2027 -
Mateusz Kochalski Dynamo Kyiv Ativo 129 / 127 40% 6 23.05.2027 -
Egil Selvik Watford Ativo 135 / 132 40% 2 23.05.2027 -
Imrân Louza Watford Ativo 136 / 124 40% 2 21.05.2027 -
Vanja Milinković-Savić Torino Ativo 157 / 157 40% 1 21.05.2027 -
Harry Clarke Preston Ativo 121 / 137 40% 1 21.05.2027 -
Edoardo Motta Lazio Ativo 131 / 122 40% 1 19.05.2027 -
Michele Cerofolini Bari Ativo 130 / 118 40% 2 18.05.2027 -
Jonathan Klinsmann Cesena Ativo 130 / 130 40% 1 18.05.2027 -
Bosun Lawal Stoke City Ativo 127 / 137 40% 1 17.05.2027 -
Tomáš Souček West Ham United Ativo 138 / 142 40% 2 16.05.2027 -
Toby Collyer West Bromwich Albion Ativo 136 / 130 40% 2 16.05.2027 -
Mathias Jørgensen Blackburn Rovers Ativo 114 / 114 40% 1 15.05.2027 -
Adam Idah Swansea City Ativo 123 / 118 40% 1 15.05.2027 -
Andre Brooks Sheffield United Ativo 136 / 122 40% 1 12.05.2027 -
Bento Al-Nassr Ativo 138 / 127 40% 4 11.05.2027 -
Marcelo Allende Mamelodi Sundowns Ativo 130 / 131 40% 4 11.05.2027 -
Christian Walton Ipswich Town Ativo 129 / 136 40% 2 11.05.2027 -
Callum Doyle Wrexham Ativo 126 / 137 40% 5 10.05.2027 -
Edoardo Bove Watford Ativo 135 / 129 40% 1 10.05.2027 -
Welington Southampton Ativo 135 / 138 40% 4 07.05.2027 -
Azor Matusiwa Ipswich Town Ativo 146 / 144 40% 1 07.05.2027 -
Lee Bonis Chesterfield Ativo 111 / 92 40% 1 05.05.2027 -
Tyreece Campbell Charlton Athletic Ativo 122 / 114 40% 1 05.05.2027 -
Balázs Tóth Blackburn Rovers Ativo 130 / 120 40% 2 03.05.2027 -
Lewis Morgan SuperSport United Ativo 120 / 131 40% 3 02.05.2027 -
Grégoire Coudert Burnley Ativo 130 / 125 40% 1 30.04.2027 -
Kyrylo Fesiun Shakhtar Ativo 134 / 113 40% 1 30.04.2027 -
Kwame Opoku Asante Kotoko Ativo 100 / 109 40% 1 29.04.2027 -
Che Adams Torino Ativo 141 / 134 40% 2 28.04.2027 -
Giorgi Chakvetadze Watford Ativo 136 / 128 40% 1 27.04.2027 -
Alessio Zerbin Frosinone Ativo 127 / 133 40% 1 27.04.2027 -
Kenny Tete Fulham Ativo 144 / 147 40% 3 25.04.2027 -
Andrea Carboni Monza Ativo 136 / 119 40% 1 25.04.2027 -
Ryan Christie Bournemouth Ativo 136 / 140 40% 4 24.04.2027 -
Hany Mukhtar Spezia Ativo 138 / 143 40% 2 23.04.2027 -
Dom Ballard Leyton Orient Ativo 120 / 118 40% 1 20.04.2027 -
Lorenzo Di Stefano Torres Ativo 101 / 104 40% 1 20.04.2027 -
Hamza Choudhury Leicester City Ativo 122 / 134 40% 2 14.04.2027 -
Maduka Okoye Udinese Ativo 132 / 130 40% 3 14.04.2027 -
João Virgínia Wolverhampton Ativo 131 / 128 40% 1 14.04.2027 -
Yusuke Matsuo Esteghlal Ativo 143 / 131 40% 2 10.04.2027 -
Nicolas Madsen Queens Park Rangers Ativo 125 / 133 40% 2 09.04.2027 -
Milan van Ewijk Mansfield Town Ativo 138 / 132 40% 1 06.04.2027 -
Yoane Wissa Newcastle United Ativo 138 / 148 40% 1 05.04.2027 -
Jacob Widell Zetterström Derby County Ativo 130 / 133 40% 2 04.04.2027 -
Jack Currie Oxford United Ativo 121 / 123 40% 1 04.04.2027 -
Fahad Hassan Al Shabab Ativo 119 / 129 40% 1 03.04.2027 -
Justin Bijlow Genoa Ativo 141 / 145 40% 1 01.04.2027 -
Tomáš Rigo Stoke City Ativo 136 / 130 40% 1 30.03.2027 -
Daniel Iversen Preston Ativo 126 / 133 40% 1 29.03.2027 -
Derry Murkin Derby County Ativo 134 / 135 40% 2 28.03.2027 -
Aidan Morris Middlesbrough Ativo 128 / 132 40% 1 28.03.2027 -
Christos Mouzakitis Hull City Ativo 138 / 138 40% 1 26.03.2027 -
Kortney Hause Middlesbrough Ativo 121 / 117 40% 1 25.03.2027 -
Atsuki Ito Bolton Wanderers Ativo 128 / 116 40% 1 25.03.2027 -
Kristoffer Lund Birmingham Ativo 126 / 133 40% 1 23.03.2027 -
Lloyd Jones Charlton Athletic Ativo 137 / 135 40% 1 23.03.2027 -
Hélio Varela Maccabi Tel Aviv Ativo 126 / 120 40% 1 23.03.2027 -
Petar Stanić Ludogorets Ativo 127 / 145 40% 2 20.03.2027 -
Ronnie Edwards Queens Park Rangers Ativo 140 / 136 40% 1 17.03.2027 -
Domenico Berardi Sassuolo Ativo 149 / 136 40% 1 16.03.2027 -
Isaac Price West Bromwich Albion Ativo 119 / 121 40% 1 15.03.2027 -
Christian Krasnodar Ativo 134 / 139 40% 3 13.03.2027 -
Maílson Al-Taawoun Ativo 115 / 132 40% 4 12.03.2027 -
Dennis Cirkin Queens Park Rangers Ativo 126 / 131 40% 1 12.03.2027 -
Gustavo Mantuan Zenit Ativo 139 / 142 40% 1 10.03.2027 -
Zack Steffen Spartak Moscow Ativo 122 / 136 40% 5 09.03.2027 -
Oscar Al-Taawoun Ativo 160 / 139 40% 2 06.03.2027 -
Silvio Gentile Zob Ahan Ativo 125 / 119 40% 1 05.03.2027 -
Ronald Swansea City Ativo 124 / 116 40% 1 05.03.2027 -
Pedrinho Shakhtar Ativo 132 / 143 40% 1 05.03.2027 -
Marlon Gomes Shakhtar Ativo 139 / 145 40% 1 01.03.2027 -
Marquinhos Spartak Moscow Ativo 121 / 133 40% 2 24.02.2027 -
Tommy Conway Middlesbrough Ativo 126 / 122 40% 1 23.02.2027 -
Habib Diarra Sunderland Ativo 132 / 139 40% 1 23.02.2027 -
Rúben Neves Al-Hilal Ativo 166 / 153 40% 1 23.02.2027 -
Lincoln Spartak Subotica Ativo 112 / 112 40% 1 23.02.2027 -
Majid Beiranvand Rah Ahan Ativo 106 / 117 40% 1 23.02.2027 -
Ilias Chair Queens Park Rangers Ativo 134 / 120 40% 1 18.02.2027 -
Christian Nørgaard Everton Ativo 138 / 139 40% 1 15.02.2027 -
Darlin Yongwa Norwich City Ativo 130 / 133 40% 1 13.02.2027 -
Tariq Lamptey Queens Park Rangers Ativo 137 / 141 40% 1 11.02.2027 -
Rob Atkinson Bristol City Ativo 129 / 129 40% 1 10.02.2027 -
Zian Flemming Ipswich Town Ativo 130 / 132 40% 1 09.02.2027 -
Pablo Rodríguez Lech Ativo 116 / 134 40% 1 08.02.2027 -
Iwan Morgan Grimsby Town Ativo 104 / 115 40% 1 08.02.2027 -
Tomáš Ladra Viktoria Plzen Ativo 128 / 128 40% 1 04.02.2027 -
Richard Koné Queens Park Rangers Ativo 131 / 116 40% 1 25.01.2027 -
Mandla Mahlangu Ajax Cape Town Ativo 110 / 122 40% 1 25.01.2027 -
Marquinhos APOEL Ativo 146 / 145 40% 1 20.01.2027 -
Lukas Jensen Millwall Ativo 121 / 111 40% 1 11.01.2027 -
Alessio Cragno Südtirol Ativo 122 / 113 40% 1 27.12.2026 -
Wladimiro Falcone Lecce Ativo 143 / 147 40% 1 24.12.2026 -
Dean Henderson Crystal Palace Ativo 144 / 153 40% 1 19.12.2026 -
Nikola Vasilj Al-Diriyah Ativo 126 / 118 40% 1 13.12.2026 -
Hendrik Bonmann Ludogorets Ativo 136 / 139 40% 2 10.12.2026 -
Matt Freese New York City Ativo 125 / 140 40% 2 06.12.2026 -
Martin Jedlička Banik Ostrava Ativo 135 / 135 40% 1 06.12.2026 -
Nicolás Sumavil Platense Ativo 115 / 118 40% 1 01.12.2026 -
Lovre Rogić HNK Rijeka Ativo 124 / 121 40% 1 28.11.2026 -
Dayne St. Clair Inter Miami CF Ativo 122 / 138 40% 2 27.11.2026 -
Dominik Holec Legia Ativo 123 / 112 40% 2 23.11.2026 -
Ştefan Târnovanu FCSB Ativo 125 / 116 40% 2 13.11.2026 -
Dominik Takáč Slovan Bratislava Ativo 137 / 137 40% 2 11.11.2026 -
Abduvohid Ne'matov Nasaf Ativo 118 / 120 40% 2 11.11.2026 -
Oscar Hedvall Valerenga Ativo 107 / 135 40% 1 29.10.2026 -
Omri Glazer Maccabi Haifa Ativo 134 / 104 40% 2 28.10.2026 -
Álvaro Fernández Mallorca Ativo 125 / 144 40% 1 26.10.2026 -
Drake Callender Minnesota United FC Ativo 113 / 120 40% 2 25.10.2026 -
Bruno Varela Najran Ativo 142 / 126 40% 2 22.10.2026 -
Heorhii Bushchan Polissia Ativo 132 / 113 40% 1 22.10.2026 -
Angus Gunn San Jose Earthquakes Ativo 108 / 104 40% 1 20.10.2026 -
Patrick Schulte Columbus Crew Ativo 106 / 111 40% 1 16.10.2026 -
Valentin Cojocaru Pogon Ativo 111 / 129 40% 1 12.10.2026 -
Santiago Silva CFR Cluj Ativo 111 / 126 40% 1 06.10.2026 -
Maxime Crépeau Orlando City Ativo 109 / 123 40% 1 22.09.2026 -
Matevž Vidovšek Olimpija Ljubljana Ativo 120 / 125 40% 1 19.09.2026 -
Ľubomír Belko Viking Ativo 128 / 142 40% 1 09.09.2026 -
Roman Celentano FC Cincinnati Ativo 109 / 109 40% 1 07.09.2026 -
Stefan Nikolić Radnicki Nis Ativo 99 / 98 58% 1 31.08.2026 -
Renato Solís Sporting Cristal Ativo 123 / 120 40% 1 26.08.2026 -
Driton Camaj Novi Pazar Ativo 106 / 114 58% 1 17.08.2026 -
Théo Hernández Al-Hilal Ativo 162 / 158 40% 1 03.08.2026 -
Ainsley Maitland-Niles Everton Ativo 139 / 149 40% 1 01.08.2026 -